Ascot Corner, Canada
Current Conditions -  °F | °C
As of 11:33 AM on Sunday 25 Jan 2015 (Local Time) from CYSC Reporting Station
Haze Haze  
Wind Chill: -13°   Ceiling: 2500
Heat Index:   Visibility: 5mi
Dew Point:   Wind: 21mph
Humidity: 79%   Direction: 280°W
Pressure: 29.63"   Gusts: NA
Location:  45.44°N, 71.8°W
Report Text: CYSC 251633Z AUTO 28018KT 5SM HZ FEW019 OVC025 M14/M17 A2963 RMK SLP050
Loading
Personal Weather Stations






























Interactive Weather Map New forecast layout! Learn more

10-Day Weather Forecast

Advertisements
Track Severe Weather on mobile